Garciasville, Texas
Current Conditions -  °F | °C
As of 2:53 AM on Sunday 23 Nov 2014 (Local Time) from KMFE Reporting Station
Haze Haze  
Wind Chill: 63°   Ceiling: 300
Heat Index: 63°   Visibility: 0.75mi
Dew Point: 63°   Wind: 3mph
Humidity: 100%   Direction: 10°N
Pressure: 29.78"   Gusts: NA
Location:  26.32°N, 98.69°W
Report Text: KMFE 230853Z AUTO 01003KT 3/4SM BR OVC003 17/17 A2978 RMK AO2 SLP084 60000 T01720172 50002
Loading
Personal Weather Stations






























Interactive Weather Map New forecast layout! Learn more

10-Day Weather Forecast

Advertisements
Track Severe Weather on mobile